Time;durP1;ratioP1;P1;durP2;ratioP2;P2;SDS_P1;SDS_P2;PMS_P1;PMS_P2;Temp;Humidity;BMP_temperature;BMP_pressure;BME280_temperature;BME280_humidity;BME280_pressure;Samples;Min_cycle;Max_cycle;Signal;HPM_P1;HPM_P2
2023/01/21 00:01:14;;;;;;;36.55;15.05;;;-5.10;99.90;;;;;;5097467;28;25123;-70
2023/01/21 00:03:42;;;;;;;31.95;13.18;;;-5.00;99.90;;;;;;5079696;28;25055;-70
2023/01/21 00:06:10;;;;;;;40.00;15.07;;;-5.10;99.90;;;;;;5079729;28;25131;-70
2023/01/21 00:08:37;;;;;;;34.53;13.98;;;-5.10;99.90;;;;;;5097365;28;25137;-70
2023/01/21 00:11:10;;;;;;;33.83;14.43;;;-5.10;99.90;;;;;;5097628;28;25045;-69
2023/01/21 00:13:37;;;;;;;51.00;16.17;;;-5.10;99.90;;;;;;5097389;28;25053;-70
2023/01/21 00:16:05;;;;;;;40.75;16.75;;;-5.10;99.90;;;;;;5079408;28;25060;-70
2023/01/21 00:18:33;;;;;;;36.63;15.30;;;-5.10;99.90;;;;;;5097405;28;25076;-70
2023/01/21 00:21:01;;;;;;;35.35;14.10;;;-5.10;99.90;;;;;;5079115;28;25086;-70
2023/01/21 00:23:28;;;;;;;40.38;14.50;;;-5.10;99.90;;;;;;5097007;28;25127;-70
2023/01/21 00:26:04;;;;;;;34.78;14.93;;;-5.10;99.90;;;;;;5079260;28;25165;-70
2023/01/21 00:28:32;;;;;;;40.42;16.00;;;-5.20;99.90;;;;;;5079038;28;25081;-70
2023/01/21 00:31:02;;;;;;;39.78;14.73;;;-5.20;99.90;;;;;;5097034;28;25128;-70
2023/01/21 00:33:30;;;;;;;35.92;14.98;;;-5.20;99.90;;;;;;5097533;28;25103;-70
2023/01/21 00:36:12;;;;;;;37.63;14.63;;;-5.20;99.90;;;;;;5096891;28;25093;-70
2023/01/21 00:38:40;;;;;;;35.88;14.57;;;-5.30;99.90;;;;;;5096738;28;25118;-70
2023/01/21 00:41:09;;;;;;;38.83;16.23;;;-5.30;99.90;;;;;;5078805;28;25065;-70
2023/01/21 00:43:36;;;;;;;32.83;14.18;;;-5.30;99.90;;;;;;5078858;28;25088;-70
2023/01/21 00:46:04;;;;;;;43.75;15.57;;;-5.30;99.90;;;;;;5097215;28;25117;-70
2023/01/21 00:48:32;;;;;;;29.95;12.80;;;-5.30;99.90;;;;;;5096895;28;25049;-70
2023/01/21 00:51:00;;;;;;;42.78;15.70;;;-5.30;99.90;;;;;;5078761;28;25081;-70
2023/01/21 00:53:28;;;;;;;35.10;13.50;;;-5.30;99.90;;;;;;5096568;28;25082;-70
2023/01/21 00:56:00;;;;;;;31.17;14.55;;;-5.30;99.90;;;;;;5097208;28;25089;-69
2023/01/21 00:58:28;;;;;;;31.23;13.60;;;-5.40;99.90;;;;;;5096766;28;25064;-70
2023/01/21 01:01:07;;;;;;;36.80;14.93;;;-5.30;99.90;;;;;;5078550;28;25058;-70
2023/01/21 01:03:36;;;;;;;40.88;14.45;;;-5.40;99.90;;;;;;5078569;28;25059;-69
2023/01/21 01:06:09;;;;;;;27.52;13.27;;;-5.40;99.90;;;;;;5097063;28;25120;-69
2023/01/21 01:08:37;;;;;;;30.90;12.98;;;-5.40;99.90;;;;;;5096607;28;25050;-69
2023/01/21 01:11:05;;;;;;;31.67;12.95;;;-5.40;99.90;;;;;;5096432;28;25056;-69
2023/01/21 01:13:34;;;;;;;33.67;14.38;;;-5.50;99.90;;;;;;5096348;28;25073;-69
2023/01/21 01:16:02;;;;;;;36.10;13.95;;;-5.50;99.90;;;;;;5078485;28;25072;-70
2023/01/21 01:18:32;;;;;;;34.38;13.05;;;-5.50;99.90;;;;;;5078683;28;25046;-69
2023/01/21 01:21:00;;;;;;;36.50;14.65;;;-5.50;99.90;;;;;;5096230;28;25122;-69
2023/01/21 01:23:28;;;;;;;34.20;14.10;;;-5.50;99.90;;;;;;5096269;28;25158;-69
2023/01/21 01:26:09;;;;;;;37.95;13.30;;;-5.50;99.90;;;;;;5078443;28;25058;-69
2023/01/21 01:28:37;;;;;;;37.83;13.55;;;-5.50;99.90;;;;;;5096477;28;25076;-69
2023/01/21 01:31:06;;;;;;;34.20;14.55;;;-5.50;99.90;;;;;;5099550;28;25076;-69
2023/01/21 01:33:34;;;;;;;36.42;13.48;;;-5.60;99.90;;;;;;5082432;28;25076;-69
2023/01/21 01:36:05;;;;;;;40.28;15.25;;;-5.60;99.90;;;;;;5100912;28;25075;-69
2023/01/21 01:38:33;;;;;;;34.80;14.48;;;-5.60;99.90;;;;;;5100109;28;25125;-69
2023/01/21 01:41:01;;;;;;;31.10;12.70;;;-5.60;99.90;;;;;;5100160;28;25112;-69
2023/01/21 01:43:50;;;;;;;29.02;12.88;;;-5.60;99.90;;;;;;5100157;28;25076;-69
2023/01/21 01:46:18;;;;;;;29.60;12.07;;;-5.60;99.90;;;;;;5100601;28;25089;-69
2023/01/21 01:48:53;;;;;;;32.38;11.85;;;-5.60;99.90;;;;;;5082111;28;25094;-69
2023/01/21 01:51:38;;;;;;;37.50;13.30;;;-5.70;99.90;;;;;;5082085;28;25069;-69
2023/01/21 01:54:06;;;;;;;29.08;11.55;;;-5.70;99.90;;;;;;5082068;28;25120;-69
2023/01/21 01:56:39;;;;;;;30.13;13.43;;;-5.70;99.90;;;;;;5081931;28;25122;-69
2023/01/21 01:59:06;;;;;;;31.50;13.10;;;-5.70;99.90;;;;;;5081972;28;25104;-69
2023/01/21 02:01:34;;;;;;;31.90;13.02;;;-5.70;99.90;;;;;;5100043;28;25049;-69
2023/01/21 02:04:06;;;;;;;40.83;13.75;;;-5.70;99.90;;;;;;5100000;28;25067;-69
2023/01/21 02:06:34;;;;;;;35.72;13.93;;;-5.70;99.90;;;;;;5081798;28;25129;-69
2023/01/21 02:09:03;;;;;;;33.42;13.20;;;-5.70;99.90;;;;;;5081777;28;25123;-69
2023/01/21 02:11:30;;;;;;;38.97;14.30;;;-5.70;99.90;;;;;;5099624;28;25061;-69
2023/01/21 02:13:58;;;;;;;37.38;13.02;;;-5.70;99.90;;;;;;5081839;28;25071;-69
2023/01/21 02:16:32;;;;;;;39.05;14.23;;;-5.70;99.90;;;;;;5099520;28;25087;-69
2023/01/21 02:19:31;;;;;;;31.13;11.98;;;-5.70;99.90;;;;;;5099475;28;25062;-69
2023/01/21 02:22:11;;;;;;;31.58;12.25;;;-5.70;99.90;;;;;;5099995;28;25146;-69
2023/01/21 02:25:00;;;;;;;34.78;13.45;;;-5.70;99.90;;;;;;5099567;28;25050;-69
2023/01/21 02:27:49;;;;;;;27.00;11.13;;;-5.70;99.90;;;;;;5099955;28;25050;-69
2023/01/21 02:30:53;;;;;;;34.13;13.45;;;-5.70;99.90;;;;;;5081377;28;25072;-69
2023/01/21 02:33:51;;;;;;;33.83;14.10;;;-5.70;99.90;;;;;;5099991;28;25047;-69
2023/01/21 02:36:57;;;;;;;36.63;15.00;;;-5.70;99.90;;;;;;5099755;28;25116;-69
2023/01/21 02:39:40;;;;;;;32.38;13.77;;;-5.60;99.90;;;;;;5061044;28;25079;-69
2023/01/21 02:42:25;;;;;;;31.77;12.57;;;-5.50;99.90;;;;;;5079473;28;25098;-69
2023/01/21 02:45:18;;;;;;;39.58;13.45;;;-5.40;99.90;;;;;;5079325;28;25068;-69
2023/01/21 02:48:08;;;;;;;35.05;13.07;;;-5.30;99.90;;;;;;5061025;28;25069;-69
2023/01/21 02:50:45;;;;;;;30.73;12.40;;;-5.20;99.90;;;;;;5079215;28;25069;-69
2023/01/21 02:53:28;;;;;;;37.03;14.05;;;-5.00;99.90;;;;;;5060918;28;25074;-69
2023/01/21 02:55:58;;;;;;;32.28;12.63;;;-4.90;99.90;;;;;;5078840;28;25067;-69
2023/01/21 02:58:32;;;;;;;33.72;13.43;;;-4.80;99.90;;;;;;5078482;28;25072;-69
2023/01/21 03:01:20;;;;;;;32.72;12.55;;;-4.70;99.90;;;;;;5078947;28;25068;-69
2023/01/21 03:04:13;;;;;;;35.50;13.60;;;-4.50;99.90;;;;;;5079130;28;25090;-69
2023/01/21 03:06:49;;;;;;;36.10;14.68;;;-4.40;99.90;;;;;;5078612;28;25050;-69
2023/01/21 03:09:29;;;;;;;33.92;14.32;;;-4.30;99.90;;;;;;5078325;28;25123;-69
2023/01/21 03:12:14;;;;;;;29.92;13.93;;;-4.20;99.90;;;;;;5078821;28;25081;-69
2023/01/21 03:18:03;;;;;;;34.28;15.27;;;-4.10;99.90;;;;;;5078761;28;25072;-69
2023/01/21 03:20:55;;;;;;;39.20;13.93;;;-4.00;99.90;;;;;;5078079;28;25061;-69
2023/01/21 03:23:29;;;;;;;33.55;14.45;;;-3.90;99.90;;;;;;5078606;28;25078;-69
2023/01/21 03:25:59;;;;;;;28.83;12.48;;;-3.80;99.90;;;;;;5077999;28;25069;-69
2023/01/21 03:28:30;;;;;;;38.00;14.15;;;-3.80;99.90;;;;;;5077989;28;25106;-69
2023/01/21 03:31:10;;;;;;;34.33;13.85;;;-3.70;99.90;;;;;;5077931;28;25136;-69
2023/01/21 03:33:41;;;;;;;33.25;13.68;;;-3.60;99.90;;;;;;5078741;28;25076;-69
2023/01/21 03:36:23;;;;;;;28.98;12.35;;;-3.60;99.90;;;;;;5060074;28;25060;-69
2023/01/21 03:38:52;;;;;;;32.88;14.70;;;-3.50;99.90;;;;;;5095772;28;25104;-69
2023/01/21 03:41:24;;;;;;;37.20;15.52;;;-3.50;99.90;;;;;;5097904;28;25109;-69
2023/01/21 03:43:52;;;;;;;34.40;14.95;;;-3.40;99.90;;;;;;5080007;28;25100;-69
2023/01/21 03:46:56;;;;;;;37.53;17.08;;;-3.40;99.90;;;;;;5097848;28;25104;-69
2023/01/21 03:49:57;;;;;;;28.88;13.80;;;-3.30;99.90;;;;;;5067128;28;25101;-69
2023/01/21 03:52:25;;;;;;;39.55;15.68;;;-3.30;99.90;;;;;;5097083;28;25096;-69
2023/01/21 03:54:53;;;;;;;39.22;15.38;;;-3.20;99.90;;;;;;5098179;28;25100;-69
2023/01/21 03:57:20;;;;;;;36.95;15.20;;;-3.20;99.90;;;;;;5079966;28;25072;-69
2023/01/21 03:59:47;;;;;;;32.80;14.18;;;-3.20;99.90;;;;;;5097564;28;25066;-69
2023/01/21 04:02:19;;;;;;;37.42;14.13;;;-3.20;99.90;;;;;;5098065;28;25163;-69
2023/01/21 04:04:47;;;;;;;35.58;15.32;;;-3.10;99.90;;;;;;5097416;28;25070;-69
2023/01/21 04:07:15;;;;;;;32.78;13.88;;;-3.10;99.90;;;;;;5097628;28;25104;-69
2023/01/21 04:09:43;;;;;;;34.50;14.55;;;-3.10;99.90;;;;;;5097335;28;25067;-69
2023/01/21 04:12:10;;;;;;;35.38;15.10;;;-3.00;99.90;;;;;;5097410;28;25102;-69
2023/01/21 04:14:38;;;;;;;39.45;15.57;;;-3.00;99.90;;;;;;5097315;28;25072;-69
2023/01/21 04:17:05;;;;;;;34.97;15.05;;;-2.90;99.90;;;;;;5097253;28;25072;-69
2023/01/21 04:19:32;;;;;;;40.58;15.95;;;-2.90;99.90;;;;;;5062666;28;25071;-69
2023/01/21 04:21:59;;;;;;;37.10;15.52;;;-2.90;99.90;;;;;;5097080;28;25050;-69
2023/01/21 04:24:26;;;;;;;34.20;14.30;;;-2.80;99.90;;;;;;5097176;28;25061;-69
2023/01/21 04:26:53;;;;;;;31.48;14.27;;;-2.80;99.90;;;;;;5097101;28;25113;-69
2023/01/21 04:29:21;;;;;;;33.92;14.57;;;-2.80;99.90;;;;;;5097699;28;25061;-69
2023/01/21 04:31:49;;;;;;;33.30;15.32;;;-2.80;99.90;;;;;;5079087;28;25060;-69
2023/01/21 04:34:17;;;;;;;38.78;14.80;;;-2.70;99.90;;;;;;5097417;28;25072;-70
2023/01/21 04:36:45;;;;;;;35.78;15.48;;;-2.70;99.90;;;;;;5097002;28;25093;-70
2023/01/21 04:39:13;;;;;;;32.15;14.57;;;-2.70;99.90;;;;;;5079378;28;25060;-69
2023/01/21 04:41:43;;;;;;;35.90;15.32;;;-2.60;99.90;;;;;;5096651;28;25057;-69
2023/01/21 04:44:11;;;;;;;32.55;13.93;;;-2.60;99.90;;;;;;5079052;28;25057;-69
2023/01/21 04:46:38;;;;;;;39.85;15.82;;;-2.60;99.90;;;;;;5097362;28;25069;-69
2023/01/21 04:49:05;;;;;;;42.40;16.58;;;-2.60;99.90;;;;;;5097298;28;25064;-69
2023/01/21 04:51:33;;;;;;;30.58;14.57;;;-2.60;99.90;;;;;;5097239;28;25132;-69
2023/01/21 04:54:00;;;;;;;42.22;16.35;;;-2.50;99.90;;;;;;5097307;28;25054;-69
2023/01/21 04:56:27;;;;;;;34.78;15.95;;;-2.50;99.90;;;;;;5097186;28;25053;-69
2023/01/21 04:58:55;;;;;;;39.63;15.25;;;-2.50;99.90;;;;;;5096669;28;25077;-69
2023/01/21 05:01:22;;;;;;;36.78;15.88;;;-2.40;99.90;;;;;;5078539;28;25084;-69
2023/01/21 05:03:50;;;;;;;36.35;16.77;;;-2.40;99.90;;;;;;5096662;28;25085;-69
2023/01/21 05:06:18;;;;;;;41.30;16.08;;;-2.30;99.90;;;;;;5096440;28;25102;-69
2023/01/21 05:08:45;;;;;;;36.55;16.25;;;-2.30;99.90;;;;;;5078499;28;25070;-70
2023/01/21 05:11:17;;;;;;;41.22;15.65;;;-2.30;99.90;;;;;;5096385;28;25086;-69
2023/01/21 05:13:44;;;;;;;36.88;15.27;;;-2.20;99.90;;;;;;5096921;28;25092;-69
2023/01/21 05:16:13;;;;;;;40.67;16.10;;;-2.20;99.90;;;;;;5078661;28;25099;-69
2023/01/21 05:18:40;;;;;;;37.45;16.50;;;-2.10;99.90;;;;;;5096338;28;25075;-69
2023/01/21 05:21:08;;;;;;;36.75;14.93;;;-2.10;99.90;;;;;;5079072;28;25091;-69
2023/01/21 05:23:35;;;;;;;39.28;15.70;;;-2.00;99.90;;;;;;5096965;28;25050;-69
2023/01/21 05:26:03;;;;;;;42.35;16.38;;;-1.90;99.90;;;;;;5096932;28;25130;-69
2023/01/21 05:28:30;;;;;;;37.75;16.35;;;-1.80;99.90;;;;;;5096874;28;25113;-69
2023/01/21 05:31:02;;;;;;;40.67;17.23;;;-1.80;99.90;;;;;;5078355;28;25066;-69
2023/01/21 05:33:31;;;;;;;43.28;16.92;;;-1.70;99.90;;;;;;5078311;28;25110;-69
2023/01/21 05:35:59;;;;;;;43.25;16.75;;;-1.70;99.90;;;;;;5097311;28;25128;-69
2023/01/21 05:38:27;;;;;;;37.53;15.02;;;-1.70;99.90;;;;;;5096333;28;25459;-70
2023/01/21 05:40:58;;;;;;;36.55;16.60;;;-1.60;99.90;;;;;;5096060;28;25068;-69
2023/01/21 05:43:26;;;;;;;36.50;16.20;;;-1.60;99.90;;;;;;5096151;28;25364;-69
2023/01/21 05:45:53;;;;;;;44.05;17.13;;;-1.60;99.90;;;;;;5096331;28;25058;-69
2023/01/21 05:48:21;;;;;;;33.28;15.40;;;-1.60;99.90;;;;;;5078411;28;25066;-70
2023/01/21 05:50:48;;;;;;;37.13;15.43;;;-1.60;99.90;;;;;;5078186;28;25050;-69
2023/01/21 05:53:16;;;;;;;43.22;16.88;;;-1.60;99.90;;;;;;5095930;28;25096;-69
2023/01/21 05:55:43;;;;;;;34.10;16.17;;;-1.60;99.90;;;;;;5096049;28;25072;-69
2023/01/21 05:58:11;;;;;;;40.78;16.10;;;-1.60;99.90;;;;;;5096170;28;25076;-70
2023/01/21 06:00:40;;;;;;;39.03;16.65;;;-1.50;99.90;;;;;;5078018;28;25111;-70
2023/01/21 06:03:08;;;;;;;41.80;16.15;;;-1.50;99.90;;;;;;5095742;28;25076;-69
2023/01/21 06:05:35;;;;;;;38.17;15.00;;;-1.50;99.90;;;;;;5078125;28;25053;-69
2023/01/21 06:08:02;;;;;;;37.35;16.25;;;-1.50;99.90;;;;;;5078043;28;25052;-69
2023/01/21 06:10:30;;;;;;;38.42;16.27;;;-1.50;99.90;;;;;;5095849;28;25075;-69
2023/01/21 06:12:57;;;;;;;40.17;17.23;;;-1.50;99.90;;;;;;5095862;28;25057;-69
2023/01/21 06:15:25;;;;;;;38.72;16.92;;;-1.50;99.90;;;;;;5096789;28;25074;-69
2023/01/21 06:17:53;;;;;;;41.30;16.00;;;-1.50;99.90;;;;;;5081712;28;25141;-69
2023/01/21 06:20:20;;;;;;;39.58;16.15;;;-1.50;99.90;;;;;;5099498;28;25072;-69
2023/01/21 06:22:48;;;;;;;36.80;15.88;;;-1.50;99.90;;;;;;5099362;28;25062;-70
2023/01/21 06:25:15;;;;;;;41.97;17.92;;;-1.40;99.90;;;;;;5099390;28;25064;-69
2023/01/21 06:27:42;;;;;;;39.58;17.13;;;-1.40;99.90;;;;;;5081524;28;25064;-70
2023/01/21 06:30:10;;;;;;;35.40;16.08;;;-1.40;99.90;;;;;;5099385;28;25066;-70
2023/01/21 06:32:38;;;;;;;36.42;15.05;;;-1.40;99.90;;;;;;5081346;28;25156;-70
2023/01/21 06:35:05;;;;;;;33.47;15.25;;;-1.40;99.90;;;;;;5099169;28;25105;-70
2023/01/21 06:37:33;;;;;;;40.38;16.40;;;-1.40;99.90;;;;;;5099612;28;25059;-70
2023/01/21 06:40:01;;;;;;;42.53;17.25;;;-1.40;99.90;;;;;;5099594;28;25128;-71
2023/01/21 06:42:28;;;;;;;40.65;15.45;;;-1.40;99.90;;;;;;5099321;28;25047;-71
2023/01/21 06:44:56;;;;;;;37.30;16.25;;;-1.40;99.90;;;;;;5099035;28;25056;-70
2023/01/21 06:47:23;;;;;;;40.28;16.20;;;-1.40;99.90;;;;;;5099512;28;25091;-76
2023/01/21 06:49:50;;;;;;;34.50;15.93;;;-1.40;99.90;;;;;;5081078;28;25098;-78
2023/01/21 06:52:17;;;;;;;40.47;17.55;;;-1.40;99.90;;;;;;5080894;28;25112;-73
2023/01/21 06:54:44;;;;;;;38.00;14.85;;;-1.40;99.90;;;;;;5098776;28;25065;-79
2023/01/21 06:57:12;;;;;;;42.90;16.00;;;-1.40;99.90;;;;;;5099087;28;25073;-77
2023/01/21 06:59:40;;;;;;;37.10;16.55;;;-1.30;99.90;;;;;;5099341;28;25065;-79
2023/01/21 07:02:09;;;;;;;36.45;14.98;;;-1.30;99.90;;;;;;5099123;28;25124;-75
2023/01/21 07:04:36;;;;;;;39.63;17.08;;;-1.30;99.90;;;;;;5080738;28;25054;-78
2023/01/21 07:07:03;;;;;;;36.72;15.15;;;-1.30;99.90;;;;;;5098629;28;25060;-77
2023/01/21 07:09:30;;;;;;;28.02;12.00;;;-1.30;99.90;;;;;;5098707;28;25055;-79
2023/01/21 07:12:01;;;;;;;31.52;13.55;;;-1.20;99.90;;;;;;5098569;28;25081;-77
2023/01/21 07:14:29;;;;;;;37.92;13.63;;;-1.20;99.90;;;;;;5098507;28;25061;-78
2023/01/21 07:16:57;;;;;;;30.98;12.65;;;-1.20;99.90;;;;;;5098341;28;25054;-78
2023/01/21 07:19:24;;;;;;;37.60;15.23;;;-1.10;99.90;;;;;;5098662;28;25060;-76
2023/01/21 07:21:52;;;;;;;33.53;13.60;;;-1.10;99.90;;;;;;5098530;28;25068;-76
2023/01/21 07:24:20;;;;;;;35.38;14.13;;;-1.10;99.90;;;;;;5080443;28;25108;-76
2023/01/21 07:26:47;;;;;;;26.08;13.50;;;-1.00;99.90;;;;;;5079664;28;25092;-75
2023/01/21 07:29:14;;;;;;;29.75;13.45;;;-1.00;99.90;;;;;;5079810;28;25060;-75
2023/01/21 07:31:42;;;;;;;29.77;12.98;;;-1.00;99.90;;;;;;5080165;28;25119;-75
2023/01/21 07:34:09;;;;;;;24.90;11.65;;;-1.00;99.90;;;;;;5063698;28;25084;-75
2023/01/21 07:36:36;;;;;;;31.67;12.30;;;-0.90;99.90;;;;;;5080159;28;25090;-72
2023/01/21 07:39:04;;;;;;;29.52;11.57;;;-0.90;99.90;;;;;;5097818;28;25065;-68
2023/01/21 07:41:31;;;;;;;27.40;12.60;;;-0.90;99.90;;;;;;5098172;28;25081;-71
2023/01/21 07:43:58;;;;;;;28.80;11.85;;;-0.90;99.90;;;;;;5080054;28;25119;-72
2023/01/21 07:46:26;;;;;;;26.33;12.98;;;-0.90;99.90;;;;;;5079811;28;25051;-71
2023/01/21 07:48:54;;;;;;;24.98;11.15;;;-0.90;99.90;;;;;;5097751;28;25088;-70
2023/01/21 07:51:21;;;;;;;24.48;12.48;;;-0.90;99.90;;;;;;5097658;28;25054;-70
2023/01/21 07:53:48;;;;;;;24.67;9.90;;;-0.90;99.90;;;;;;5097776;28;25135;-70
2023/01/21 07:56:17;;;;;;;22.42;10.95;;;-0.90;99.90;;;;;;5097733;28;25049;-70
2023/01/21 07:58:45;;;;;;;29.70;12.68;;;-0.80;99.90;;;;;;5098286;28;25064;-70
2023/01/21 08:01:13;;;;;;;29.15;11.90;;;-0.80;99.90;;;;;;5097466;28;25079;-70
2023/01/21 08:03:40;;;;;;;24.58;11.85;;;-0.80;99.90;;;;;;5079593;28;25085;-70
2023/01/21 08:06:08;;;;;;;26.30;12.45;;;-0.70;99.90;;;;;;5097515;28;25090;-70
2023/01/21 08:08:35;;;;;;;23.27;12.13;;;-0.70;99.90;;;;;;5097425;28;25066;-70
2023/01/21 08:11:02;;;;;;;26.88;11.85;;;-0.70;99.90;;;;;;5079626;28;25092;-70
2023/01/21 08:13:29;;;;;;;31.67;12.70;;;-0.70;99.90;;;;;;5097688;28;25302;-70
2023/01/21 08:15:56;;;;;;;28.00;11.95;;;-0.70;99.90;;;;;;5097515;28;25118;-70
2023/01/21 08:18:24;;;;;;;25.38;11.13;;;-0.60;99.90;;;;;;5097451;28;25056;-70
2023/01/21 08:20:55;;;;;;;21.95;11.00;;;-0.60;99.90;;;;;;5097261;28;25072;-70
2023/01/21 08:23:24;;;;;;;22.67;9.90;;;-0.60;99.90;;;;;;5097199;28;25049;-70
2023/01/21 08:25:51;;;;;;;23.42;9.93;;;-0.50;99.90;;;;;;5079195;28;25058;-70
2023/01/21 08:28:19;;;;;;;19.92;9.57;;;-0.50;99.90;;;;;;5097268;28;25057;-70
2023/01/21 08:30:46;;;;;;;23.95;9.50;;;-0.50;99.90;;;;;;5097109;28;25106;-70
2023/01/21 08:33:13;;;;;;;21.05;8.65;;;-0.40;99.90;;;;;;5096990;28;25128;-70
2023/01/21 08:35:40;;;;;;;22.38;10.38;;;-0.40;99.90;;;;;;5097568;28;25128;-70
2023/01/21 08:38:08;;;;;;;18.27;9.00;;;-0.30;99.90;;;;;;5058719;28;25069;-70
2023/01/21 08:40:36;;;;;;;19.77;9.63;;;-0.30;99.90;;;;;;5076604;28;25092;-70
2023/01/21 08:43:06;;;;;;;22.95;8.95;;;-0.20;99.90;;;;;;5075548;28;25133;-70
2023/01/21 08:45:35;;;;;;;21.08;9.88;;;-0.10;99.90;;;;;;5076504;28;25065;-71
2023/01/21 08:48:03;;;;;;;25.50;9.70;;;-0.10;99.90;;;;;;5077275;28;25068;-70
2023/01/21 08:50:31;;;;;;;22.83;10.48;;;-0.10;99.90;;;;;;5077088;28;25076;-70
2023/01/21 08:52:58;;;;;;;40.10;17.52;;;0.00;99.90;;;;;;5075434;28;25051;-70
2023/01/21 08:55:26;;;;;;;34.17;16.58;;;0.00;99.90;;;;;;5076364;28;25058;-70
2023/01/21 08:57:54;;;;;;;23.85;12.20;;;0.00;99.90;;;;;;5075541;28;25059;-71
2023/01/21 09:00:22;;;;;;;20.35;8.98;;;0.10;99.90;;;;;;5076671;28;25050;-70
2023/01/21 09:02:51;;;;;;;21.30;8.77;;;0.10;99.90;;;;;;5076934;28;25107;-70
2023/01/21 09:05:19;;;;;;;20.65;8.90;;;0.20;99.90;;;;;;5076939;28;25118;-70
2023/01/21 09:07:46;;;;;;;17.00;7.70;;;0.20;99.90;;;;;;5076550;28;25059;-70
2023/01/21 09:10:59;;;;;;;22.17;10.60;;;0.20;99.90;;;;;;5075600;28;25393;-70
2023/01/21 09:13:06;;;;;;;20.27;9.80;;;0.20;99.90;;;;;;5076131;28;25084;-70
2023/01/21 09:15:43;;;;;;;19.88;9.60;;;0.30;99.90;;;;;;5076826;28;25081;-70
2023/01/21 09:18:10;;;;;;;19.73;8.90;;;0.30;99.90;;;;;;5076237;28;25101;-70
2023/01/21 09:20:38;;;;;;;20.80;10.27;;;0.30;99.90;;;;;;5075277;28;25132;-70
2023/01/21 09:26:03;;;;;;;21.10;9.48;;;0.40;99.90;;;;;;5076617;28;25083;-71
2023/01/21 09:28:32;;;;;;;18.42;7.60;;;0.50;99.90;;;;;;5076049;28;25060;-70
2023/01/21 09:31:03;;;;;;;16.45;8.32;;;0.50;99.90;;;;;;5075058;28;25114;-71
2023/01/21 09:33:32;;;;;;;19.13;8.88;;;0.50;99.90;;;;;;5076163;28;25060;-72
2023/01/21 09:36:02;;;;;;;17.42;8.40;;;0.50;99.90;;;;;;5076006;28;25057;-71
2023/01/21 09:38:29;;;;;;;19.65;8.43;;;0.50;99.90;;;;;;5090479;28;25113;-71
2023/01/21 09:41:28;;;;;;;16.88;9.07;;;0.60;99.90;;;;;;5061650;28;25107;-71
2023/01/21 09:44:17;;;;;;;18.88;9.15;;;0.60;99.90;;;;;;5059218;28;25076;-71
2023/01/21 09:46:53;;;;;;;20.45;8.77;;;0.60;99.90;;;;;;5096404;28;25141;-71
2023/01/21 09:49:31;;;;;;;23.30;9.73;;;0.60;99.90;;;;;;5096803;28;25058;-70
2023/01/21 09:52:23;;;;;;;21.48;9.18;;;0.70;99.90;;;;;;5099735;28;25068;-71
2023/01/21 09:54:51;;;;;;;21.70;9.93;;;0.70;99.90;;;;;;5088638;28;25073;-71
2023/01/21 09:57:32;;;;;;;19.83;9.13;;;0.70;99.90;;;;;;5082176;28;25062;-71
2023/01/21 10:00:24;;;;;;;18.95;8.80;;;0.70;99.90;;;;;;5099970;28;25078;-71
2023/01/21 10:03:10;;;;;;;19.15;9.00;;;0.60;99.90;;;;;;5099859;28;25105;-70
2023/01/21 10:05:37;;;;;;;;;;;0.60;99.90;;;;;;5082263;28;25094;-71
2023/01/21 10:08:24;;;;;;;17.42;7.97;;;0.60;99.90;;;;;;5100489;28;24099;-71
2023/01/21 10:11:08;;;;;;;18.75;7.60;;;0.60;99.90;;;;;;5099798;28;25137;-71
2023/01/21 10:14:07;;;;;;;17.73;8.43;;;0.60;99.90;;;;;;5100042;28;25088;-71
2023/01/21 10:16:53;;;;;;;19.75;8.55;;;0.60;99.90;;;;;;5099769;28;25049;-71
2023/01/21 10:19:41;;;;;;;18.50;8.68;;;0.60;99.90;;;;;;5099621;28;25103;-71
2023/01/21 10:22:26;;;;;;;19.63;7.65;;;0.60;99.90;;;;;;5099529;28;25147;-71
2023/01/21 10:25:23;;;;;;;18.08;7.70;;;0.70;99.90;;;;;;5081467;28;25099;-72
2023/01/21 10:27:51;;;;;;;16.33;6.43;;;0.70;99.90;;;;;;5090924;28;25095;-72
2023/01/21 10:30:35;;;;;;;15.70;6.85;;;0.80;99.90;;;;;;5099912;28;25068;-71
2023/01/21 10:33:03;;;;;;;19.90;8.50;;;0.80;99.90;;;;;;5099372;28;25125;-73
2023/01/21 10:36:11;;;;;;;19.70;8.30;;;0.80;99.90;;;;;;5099600;28;25078;-73
2023/01/21 10:38:55;;;;;;;14.60;7.47;;;0.90;99.90;;;;;;5077950;28;25112;-72
2023/01/21 10:41:56;;;;;;;19.90;8.77;;;1.00;99.90;;;;;;5077734;28;25063;-72
2023/01/21 10:44:39;;;;;;;16.27;6.97;;;1.00;99.90;;;;;;5078808;28;25085;-72
2023/01/21 10:47:33;;;;;;;18.48;7.40;;;1.10;99.90;;;;;;5078918;28;25083;-72
2023/01/21 10:50:13;;;;;;;13.63;7.30;;;1.20;99.90;;;;;;5079017;28;25092;-72
2023/01/21 10:52:49;;;;;;;14.98;6.95;;;1.20;99.90;;;;;;5079026;28;25074;-72
2023/01/21 10:55:50;;;;;;;13.93;6.82;;;1.30;99.90;;;;;;5078695;28;25062;-72
2023/01/21 10:58:28;;;;;;;13.90;5.95;;;1.40;99.90;;;;;;5078910;28;25066;-76
2023/01/21 11:00:59;;;;;;;14.80;6.65;;;1.40;99.90;;;;;;5078620;28;25055;-73
2023/01/21 11:03:43;;;;;;;13.90;6.20;;;1.50;99.90;;;;;;5078658;28;25099;-73
2023/01/21 11:06:17;;;;;;;9.32;5.03;;;1.50;99.90;;;;;;5077450;28;25103;-73
2023/01/21 11:08:50;;;;;;;12.40;5.75;;;1.60;99.90;;;;;;5079130;28;25096;-72
2023/01/21 11:11:26;;;;;;;11.80;5.90;;;1.70;99.90;;;;;;5078374;28;25076;-72
2023/01/21 11:13:55;;;;;;;9.27;4.72;;;1.70;99.90;;;;;;5079044;28;25070;-72
2023/01/21 11:16:46;;;;;;;11.35;5.60;;;1.80;99.90;;;;;;5077189;28;25104;-72
2023/01/21 11:19:16;;;;;;;10.48;4.75;;;1.90;99.90;;;;;;5078793;28;25074;-72
2023/01/21 11:22:11;;;;;;;9.52;4.72;;;1.90;99.90;;;;;;5077011;28;25113;-72
2023/01/21 11:24:47;;;;;;;8.65;4.47;;;2.00;99.90;;;;;;5078126;28;25071;-71
2023/01/21 11:27:39;;;;;;;10.05;4.63;;;2.10;99.90;;;;;;5078346;28;25139;-72
2023/01/21 11:30:28;;;;;;;11.63;4.78;;;2.10;99.90;;;;;;5078560;28;25124;-72
2023/01/21 11:33:26;;;;;;;10.85;4.85;;;2.20;99.90;;;;;;5077037;28;25125;-72
2023/01/21 11:35:54;;;;;;;8.52;4.68;;;2.20;99.90;;;;;;5078446;28;25077;-72
2023/01/21 11:38:35;;;;;;;7.70;4.40;;;2.20;99.90;;;;;;5091004;28;25060;-72
2023/01/21 11:41:20;;;;;;;9.38;4.53;;;2.20;99.90;;;;;;5080043;28;25057;-72
2023/01/21 11:44:08;;;;;;;10.15;4.18;;;2.20;99.90;;;;;;5098224;28;25146;-72
2023/01/21 11:46:37;;;;;;;8.93;4.10;;;2.20;99.90;;;;;;5098205;28;25116;-72
2023/01/21 11:49:08;;;;;;;9.35;5.20;;;2.30;99.90;;;;;;5079942;28;25111;-72
2023/01/21 11:51:38;;;;;;;8.40;4.15;;;2.30;99.90;;;;;;5098159;28;25065;-72
2023/01/21 11:54:23;;;;;;;8.18;3.42;;;2.30;99.90;;;;;;5079951;28;25067;-72
2023/01/21 11:57:01;;;;;;;7.97;4.00;;;2.30;99.90;;;;;;5097723;28;25092;-72
2023/01/21 11:59:33;;;;;;;7.70;3.40;;;2.20;99.90;;;;;;5097591;28;25113;-72
2023/01/21 12:02:15;;;;;;;10.75;5.50;;;2.20;99.90;;;;;;5097747;28;25069;-72
2023/01/21 12:04:49;;;;;;;10.43;4.82;;;2.20;99.90;;;;;;5097582;28;25113;-72
2023/01/21 12:07:30;;;;;;;11.70;5.28;;;2.10;99.90;;;;;;5097862;28;25112;-72
2023/01/21 12:10:14;;;;;;;13.55;5.22;;;2.10;99.90;;;;;;5097607;28;25166;-72
2023/01/21 12:13:03;;;;;;;9.82;4.28;;;2.10;99.90;;;;;;5097449;28;25072;-72
2023/01/21 12:16:14;;;;;;;10.35;4.65;;;2.10;99.90;;;;;;5097586;28;25061;-72
2023/01/21 12:19:02;;;;;;;8.23;4.10;;;2.10;99.90;;;;;;5097776;28;25061;-72
2023/01/21 12:21:37;;;;;;;13.02;6.18;;;2.20;99.90;;;;;;5097761;28;25061;-71
2023/01/21 12:24:22;;;;;;;11.77;5.10;;;2.20;99.90;;;;;;5097701;28;25052;-71
2023/01/21 12:27:16;;;;;;;9.55;4.43;;;2.20;99.90;;;;;;5097254;28;25047;-71
2023/01/21 12:30:10;;;;;;;10.00;4.63;;;2.10;99.90;;;;;;5097394;28;25124;-71
2023/01/21 12:33:01;;;;;;;9.15;4.00;;;2.10;99.90;;;;;;5097277;28;25085;-71
2023/01/21 12:35:38;;;;;;;13.60;5.50;;;2.10;99.90;;;;;;5097058;28;25093;-71
2023/01/21 12:38:40;;;;;;;11.65;4.47;;;2.00;99.90;;;;;;5096816;28;25090;-72
2023/01/21 12:41:29;;;;;;;11.48;5.25;;;2.00;99.90;;;;;;5096751;28;25073;-71
2023/01/21 12:44:28;;;;;;;9.32;4.43;;;2.00;99.90;;;;;;5097112;28;25126;-71
2023/01/21 12:47:03;;;;;;;8.68;4.07;;;2.00;99.90;;;;;;5097412;28;25073;-71
2023/01/21 12:49:57;;;;;;;11.30;3.97;;;2.00;99.90;;;;;;5096886;28;25074;-71
2023/01/21 12:52:46;;;;;;;10.85;4.18;;;2.10;99.90;;;;;;5078904;28;25069;-72
2023/01/21 12:55:21;;;;;;;9.57;4.75;;;2.10;99.90;;;;;;5078757;28;25091;-72
2023/01/21 12:58:11;;;;;;;10.98;5.50;;;2.10;99.90;;;;;;5096697;28;25094;-72
2023/01/21 13:00:45;;;;;;;11.52;4.53;;;2.20;99.90;;;;;;5096715;28;25059;-72
2023/01/21 13:03:36;;;;;;;12.13;4.90;;;2.10;99.90;;;;;;5097301;28;25116;-72
2023/01/21 13:06:22;;;;;;;8.60;3.58;;;2.10;99.90;;;;;;5049785;28;25126;-72
2023/01/21 13:09:32;;;;;;;8.57;4.05;;;2.10;99.90;;;;;;5097123;28;25065;-72
2023/01/21 13:12:10;;;;;;;9.43;4.53;;;2.10;99.90;;;;;;5049284;28;25064;-72
2023/01/21 13:14:45;;;;;;;9.48;4.22;;;2.10;99.90;;;;;;5096489;28;25049;-72
2023/01/21 13:17:28;;;;;;;10.90;4.27;;;2.10;99.90;;;;;;5078618;28;25054;-72